sensor_id;sensor_type;location;lat;lon;timestamp;pressure;altitude;pressure_sealevel;temperature
8227;BMP180;4154;48.810;9.012;2023-11-19T00:00:54;96949.00;;;8.30
8227;BMP180;4154;48.810;9.012;2023-11-19T00:03:20;96952.00;;;8.20
8227;BMP180;4154;48.810;9.012;2023-11-19T00:05:46;96936.00;;;8.30
8227;BMP180;4154;48.810;9.012;2023-11-19T00:08:11;96934.00;;;8.30
8227;BMP180;4154;48.810;9.012;2023-11-19T00:10:37;96930.00;;;8.30
8227;BMP180;4154;48.810;9.012;2023-11-19T00:13:02;96926.00;;;8.30
8227;BMP180;4154;48.810;9.012;2023-11-19T00:15:29;96924.00;;;8.30
8227;BMP180;4154;48.810;9.012;2023-11-19T00:17:55;96922.00;;;8.30
8227;BMP180;4154;48.810;9.012;2023-11-19T00:20:21;96916.00;;;8.30
8227;BMP180;4154;48.810;9.012;2023-11-19T00:22:50;96921.00;;;8.50
8227;BMP180;4154;48.810;9.012;2023-11-19T00:25:20;96911.00;;;8.40
8227;BMP180;4154;48.810;9.012;2023-11-19T00:27:45;96908.00;;;8.40
8227;BMP180;4154;48.810;9.012;2023-11-19T00:30:12;96909.00;;;8.40
8227;BMP180;4154;48.810;9.012;2023-11-19T00:32:39;96892.00;;;8.50
8227;BMP180;4154;48.810;9.012;2023-11-19T00:35:06;96887.00;;;8.50
8227;BMP180;4154;48.810;9.012;2023-11-19T00:37:33;96895.00;;;8.60
8227;BMP180;4154;48.810;9.012;2023-11-19T00:39:59;96907.00;;;8.60
8227;BMP180;4154;48.810;9.012;2023-11-19T00:42:25;96895.00;;;8.60
8227;BMP180;4154;48.810;9.012;2023-11-19T00:44:52;96893.00;;;8.80
8227;BMP180;4154;48.810;9.012;2023-11-19T00:47:18;96894.00;;;8.70
8227;BMP180;4154;48.810;9.012;2023-11-19T00:49:48;96880.00;;;8.80
8227;BMP180;4154;48.810;9.012;2023-11-19T00:52:15;96888.00;;;8.80
8227;BMP180;4154;48.810;9.012;2023-11-19T00:54:41;96883.00;;;8.90
8227;BMP180;4154;48.810;9.012;2023-11-19T00:57:06;96876.00;;;8.90
8227;BMP180;4154;48.810;9.012;2023-11-19T00:59:32;96879.00;;;8.90
8227;BMP180;4154;48.810;9.012;2023-11-19T01:01:58;96888.00;;;8.90
8227;BMP180;4154;48.810;9.012;2023-11-19T01:04:29;96884.00;;;9.00
8227;BMP180;4154;48.810;9.012;2023-11-19T01:06:55;96880.00;;;9.00
8227;BMP180;4154;48.810;9.012;2023-11-19T01:09:21;96874.00;;;9.00
8227;BMP180;4154;48.810;9.012;2023-11-19T01:11:47;96882.00;;;9.10
8227;BMP180;4154;48.810;9.012;2023-11-19T01:14:12;96880.00;;;9.10
8227;BMP180;4154;48.810;9.012;2023-11-19T01:16:42;96876.00;;;9.00
8227;BMP180;4154;48.810;9.012;2023-11-19T01:19:08;96881.00;;;9.10
8227;BMP180;4154;48.810;9.012;2023-11-19T01:21:33;96876.00;;;9.10
8227;BMP180;4154;48.810;9.012;2023-11-19T01:23:59;96875.00;;;9.20
8227;BMP180;4154;48.810;9.012;2023-11-19T01:26:26;96868.00;;;9.20
8227;BMP180;4154;48.810;9.012;2023-11-19T01:28:52;96872.00;;;9.20
8227;BMP180;4154;48.810;9.012;2023-11-19T01:31:19;96879.00;;;9.20
8227;BMP180;4154;48.810;9.012;2023-11-19T01:33:45;96880.00;;;9.10
8227;BMP180;4154;48.810;9.012;2023-11-19T01:36:15;96877.00;;;9.10
8227;BMP180;4154;48.810;9.012;2023-11-19T01:38:41;96863.00;;;9.20
8227;BMP180;4154;48.810;9.012;2023-11-19T01:41:07;96866.00;;;9.20
8227;BMP180;4154;48.810;9.012;2023-11-19T01:43:37;96871.00;;;9.30
8227;BMP180;4154;48.810;9.012;2023-11-19T01:46:05;96865.00;;;9.30
8227;BMP180;4154;48.810;9.012;2023-11-19T01:48:35;96871.00;;;9.30
8227;BMP180;4154;48.810;9.012;2023-11-19T01:51:03;96853.00;;;9.30
8227;BMP180;4154;48.810;9.012;2023-11-19T01:53:30;96863.00;;;9.40
8227;BMP180;4154;48.810;9.012;2023-11-19T01:55:58;96868.00;;;9.30
8227;BMP180;4154;48.810;9.012;2023-11-19T01:58:24;96872.00;;;9.40
8227;BMP180;4154;48.810;9.012;2023-11-19T02:00:50;96855.00;;;9.40
8227;BMP180;4154;48.810;9.012;2023-11-19T02:03:16;96853.00;;;9.40
8227;BMP180;4154;48.810;9.012;2023-11-19T02:05:42;96869.00;;;9.40
8227;BMP180;4154;48.810;9.012;2023-11-19T02:08:08;96860.00;;;9.40
8227;BMP180;4154;48.810;9.012;2023-11-19T02:10:35;96849.00;;;9.50
8227;BMP180;4154;48.810;9.012;2023-11-19T02:13:01;96853.00;;;9.50
8227;BMP180;4154;48.810;9.012;2023-11-19T02:15:28;96850.00;;;9.50
8227;BMP180;4154;48.810;9.012;2023-11-19T02:17:54;96856.00;;;9.50
8227;BMP180;4154;48.810;9.012;2023-11-19T02:20:20;96840.00;;;9.50
8227;BMP180;4154;48.810;9.012;2023-11-19T02:22:47;96848.00;;;9.50
8227;BMP180;4154;48.810;9.012;2023-11-19T02:25:33;96832.00;;;9.50
8227;BMP180;4154;48.810;9.012;2023-11-19T02:28:01;96836.00;;;9.50
8227;BMP180;4154;48.810;9.012;2023-11-19T02:30:27;96845.00;;;9.60
8227;BMP180;4154;48.810;9.012;2023-11-19T02:32:58;96829.00;;;9.60
8227;BMP180;4154;48.810;9.012;2023-11-19T02:35:28;96837.00;;;9.60
8227;BMP180;4154;48.810;9.012;2023-11-19T02:37:56;96828.00;;;9.60
8227;BMP180;4154;48.810;9.012;2023-11-19T02:40:22;96830.00;;;9.60
8227;BMP180;4154;48.810;9.012;2023-11-19T02:42:50;96840.00;;;9.60
8227;BMP180;4154;48.810;9.012;2023-11-19T02:45:16;96840.00;;;9.60
8227;BMP180;4154;48.810;9.012;2023-11-19T02:47:43;96847.00;;;9.60
8227;BMP180;4154;48.810;9.012;2023-11-19T02:50:11;96851.00;;;9.70
8227;BMP180;4154;48.810;9.012;2023-11-19T02:52:44;96843.00;;;9.70
8227;BMP180;4154;48.810;9.012;2023-11-19T02:55:12;96846.00;;;9.70
8227;BMP180;4154;48.810;9.012;2023-11-19T02:57:41;96835.00;;;9.70
8227;BMP180;4154;48.810;9.012;2023-11-19T03:00:23;96844.00;;;9.80
8227;BMP180;4154;48.810;9.012;2023-11-19T03:03:13;96851.00;;;9.80
8227;BMP180;4154;48.810;9.012;2023-11-19T03:05:49;96852.00;;;9.80
8227;BMP180;4154;48.810;9.012;2023-11-19T03:08:15;96851.00;;;9.80
8227;BMP180;4154;48.810;9.012;2023-11-19T03:10:41;96853.00;;;9.80
8227;BMP180;4154;48.810;9.012;2023-11-19T03:13:12;96853.00;;;9.90
8227;BMP180;4154;48.810;9.012;2023-11-19T03:15:40;96849.00;;;9.80
8227;BMP180;4154;48.810;9.012;2023-11-19T03:18:05;96852.00;;;9.90
8227;BMP180;4154;48.810;9.012;2023-11-19T03:20:31;96848.00;;;9.90
8227;BMP180;4154;48.810;9.012;2023-11-19T03:22:57;96851.00;;;9.90
8227;BMP180;4154;48.810;9.012;2023-11-19T03:25:25;96853.00;;;9.90
8227;BMP180;4154;48.810;9.012;2023-11-19T03:27:59;96848.00;;;9.90
8227;BMP180;4154;48.810;9.012;2023-11-19T03:30:27;96846.00;;;9.90
8227;BMP180;4154;48.810;9.012;2023-11-19T03:32:57;96844.00;;;9.90
8227;BMP180;4154;48.810;9.012;2023-11-19T03:35:23;96843.00;;;9.90
8227;BMP180;4154;48.810;9.012;2023-11-19T03:37:50;96839.00;;;9.90
8227;BMP180;4154;48.810;9.012;2023-11-19T03:40:17;96846.00;;;10.00
8227;BMP180;4154;48.810;9.012;2023-11-19T03:42:47;96839.00;;;9.90
8227;BMP180;4154;48.810;9.012;2023-11-19T03:45:13;96838.00;;;10.00
8227;BMP180;4154;48.810;9.012;2023-11-19T03:47:39;96844.00;;;10.10
8227;BMP180;4154;48.810;9.012;2023-11-19T03:50:06;96839.00;;;10.00
8227;BMP180;4154;48.810;9.012;2023-11-19T03:52:33;96846.00;;;10.00
8227;BMP180;4154;48.810;9.012;2023-11-19T03:54:59;96835.00;;;10.00
8227;BMP180;4154;48.810;9.012;2023-11-19T03:57:25;96829.00;;;10.00
8227;BMP180;4154;48.810;9.012;2023-11-19T03:59:51;96835.00;;;10.10
8227;BMP180;4154;48.810;9.012;2023-11-19T04:02:17;96821.00;;;10.10
8227;BMP180;4154;48.810;9.012;2023-11-19T04:04:43;96819.00;;;10.10
8227;BMP180;4154;48.810;9.012;2023-11-19T04:07:08;96825.00;;;10.10
8227;BMP180;4154;48.810;9.012;2023-11-19T04:09:35;96826.00;;;10.10
8227;BMP180;4154;48.810;9.012;2023-11-19T04:12:03;96816.00;;;10.20
8227;BMP180;4154;48.810;9.012;2023-11-19T04:14:29;96812.00;;;10.10
8227;BMP180;4154;48.810;9.012;2023-11-19T04:16:55;96825.00;;;10.20
8227;BMP180;4154;48.810;9.012;2023-11-19T04:19:21;96828.00;;;10.20
8227;BMP180;4154;48.810;9.012;2023-11-19T04:21:48;96831.00;;;10.20
8227;BMP180;4154;48.810;9.012;2023-11-19T04:24:14;96824.00;;;10.20
8227;BMP180;4154;48.810;9.012;2023-11-19T04:26:41;96831.00;;;10.20
8227;BMP180;4154;48.810;9.012;2023-11-19T04:29:09;96818.00;;;10.20
8227;BMP180;4154;48.810;9.012;2023-11-19T04:31:37;96823.00;;;10.30
8227;BMP180;4154;48.810;9.012;2023-11-19T04:34:03;96832.00;;;10.30
8227;BMP180;4154;48.810;9.012;2023-11-19T04:36:29;96827.00;;;10.20
8227;BMP180;4154;48.810;9.012;2023-11-19T04:38:55;96834.00;;;10.20
8227;BMP180;4154;48.810;9.012;2023-11-19T04:41:21;96830.00;;;10.30
8227;BMP180;4154;48.810;9.012;2023-11-19T04:43:46;96839.00;;;10.30
8227;BMP180;4154;48.810;9.012;2023-11-19T04:46:13;96838.00;;;10.30
8227;BMP180;4154;48.810;9.012;2023-11-19T04:48:39;96836.00;;;10.30
8227;BMP180;4154;48.810;9.012;2023-11-19T04:51:05;96841.00;;;10.30
8227;BMP180;4154;48.810;9.012;2023-11-19T04:53:31;96846.00;;;10.30
8227;BMP180;4154;48.810;9.012;2023-11-19T04:55:56;96846.00;;;10.30
8227;BMP180;4154;48.810;9.012;2023-11-19T04:58:22;96848.00;;;10.30
8227;BMP180;4154;48.810;9.012;2023-11-19T05:00:48;96856.00;;;10.30
8227;BMP180;4154;48.810;9.012;2023-11-19T05:03:14;96845.00;;;10.40
8227;BMP180;4154;48.810;9.012;2023-11-19T05:05:39;96846.00;;;10.30
8227;BMP180;4154;48.810;9.012;2023-11-19T05:08:05;96831.00;;;10.40
8227;BMP180;4154;48.810;9.012;2023-11-19T05:10:30;96828.00;;;10.40
8227;BMP180;4154;48.810;9.012;2023-11-19T05:12:56;96838.00;;;10.40
8227;BMP180;4154;48.810;9.012;2023-11-19T05:15:22;96839.00;;;10.40
8227;BMP180;4154;48.810;9.012;2023-11-19T05:17:48;96840.00;;;10.40
8227;BMP180;4154;48.810;9.012;2023-11-19T05:20:13;96846.00;;;10.40
8227;BMP180;4154;48.810;9.012;2023-11-19T05:22:41;96857.00;;;10.40
8227;BMP180;4154;48.810;9.012;2023-11-19T05:25:07;96841.00;;;10.40
8227;BMP180;4154;48.810;9.012;2023-11-19T05:27:35;96856.00;;;10.50
8227;BMP180;4154;48.810;9.012;2023-11-19T05:30:02;96851.00;;;10.50
8227;BMP180;4154;48.810;9.012;2023-11-19T05:32:28;96849.00;;;10.40
8227;BMP180;4154;48.810;9.012;2023-11-19T05:34:54;96859.00;;;10.50
8227;BMP180;4154;48.810;9.012;2023-11-19T05:37:20;96855.00;;;10.50
8227;BMP180;4154;48.810;9.012;2023-11-19T05:39:45;96844.00;;;10.50
8227;BMP180;4154;48.810;9.012;2023-11-19T05:42:12;96841.00;;;10.50
8227;BMP180;4154;48.810;9.012;2023-11-19T05:44:37;96846.00;;;10.50
8227;BMP180;4154;48.810;9.012;2023-11-19T05:47:03;96838.00;;;10.50
8227;BMP180;4154;48.810;9.012;2023-11-19T05:49:29;96843.00;;;10.60
8227;BMP180;4154;48.810;9.012;2023-11-19T05:51:55;96833.00;;;10.50
8227;BMP180;4154;48.810;9.012;2023-11-19T05:54:21;96829.00;;;10.60
8227;BMP180;4154;48.810;9.012;2023-11-19T05:56:48;96829.00;;;10.60
8227;BMP180;4154;48.810;9.012;2023-11-19T05:59:15;96829.00;;;10.60
8227;BMP180;4154;48.810;9.012;2023-11-19T06:01:43;96832.00;;;10.60
8227;BMP180;4154;48.810;9.012;2023-11-19T06:04:09;96836.00;;;10.60
8227;BMP180;4154;48.810;9.012;2023-11-19T06:06:36;96836.00;;;10.70
8227;BMP180;4154;48.810;9.012;2023-11-19T06:09:03;96836.00;;;10.60
8227;BMP180;4154;48.810;9.012;2023-11-19T06:11:29;96840.00;;;10.60
8227;BMP180;4154;48.810;9.012;2023-11-19T06:13:55;96835.00;;;10.70
8227;BMP180;4154;48.810;9.012;2023-11-19T06:16:20;96836.00;;;10.70
8227;BMP180;4154;48.810;9.012;2023-11-19T06:18:46;96852.00;;;10.70
8227;BMP180;4154;48.810;9.012;2023-11-19T06:21:12;96853.00;;;10.70
8227;BMP180;4154;48.810;9.012;2023-11-19T06:23:38;96855.00;;;10.70
8227;BMP180;4154;48.810;9.012;2023-11-19T06:26:04;96850.00;;;10.70
8227;BMP180;4154;48.810;9.012;2023-11-19T06:28:31;96852.00;;;10.70
8227;BMP180;4154;48.810;9.012;2023-11-19T06:30:58;96865.00;;;10.70
8227;BMP180;4154;48.810;9.012;2023-11-19T06:33:24;96860.00;;;10.70
8227;BMP180;4154;48.810;9.012;2023-11-19T06:35:50;96860.00;;;10.70
8227;BMP180;4154;48.810;9.012;2023-11-19T06:38:16;96868.00;;;10.80
8227;BMP180;4154;48.810;9.012;2023-11-19T06:40:41;96862.00;;;10.80
8227;BMP180;4154;48.810;9.012;2023-11-19T06:43:07;96862.00;;;10.80
8227;BMP180;4154;48.810;9.012;2023-11-19T06:45:36;96870.00;;;10.80
8227;BMP180;4154;48.810;9.012;2023-11-19T06:48:05;96871.00;;;10.80
8227;BMP180;4154;48.810;9.012;2023-11-19T06:50:32;96869.00;;;10.80
8227;BMP180;4154;48.810;9.012;2023-11-19T06:52:57;96867.00;;;10.80
8227;BMP180;4154;48.810;9.012;2023-11-19T06:55:23;96866.00;;;10.90
8227;BMP180;4154;48.810;9.012;2023-11-19T06:57:49;96877.00;;;10.80
8227;BMP180;4154;48.810;9.012;2023-11-19T07:00:15;96874.00;;;10.90
8227;BMP180;4154;48.810;9.012;2023-11-19T07:02:40;96862.00;;;10.90
8227;BMP180;4154;48.810;9.012;2023-11-19T07:05:07;96867.00;;;10.90
8227;BMP180;4154;48.810;9.012;2023-11-19T07:07:33;96866.00;;;10.90
8227;BMP180;4154;48.810;9.012;2023-11-19T07:10:01;96866.00;;;10.90
8227;BMP180;4154;48.810;9.012;2023-11-19T07:12:28;96862.00;;;10.90
8227;BMP180;4154;48.810;9.012;2023-11-19T07:14:54;96865.00;;;10.90
8227;BMP180;4154;48.810;9.012;2023-11-19T07:17:20;96866.00;;;10.90
8227;BMP180;4154;48.810;9.012;2023-11-19T07:19:50;96871.00;;;10.90
8227;BMP180;4154;48.810;9.012;2023-11-19T07:22:16;96861.00;;;10.90
8227;BMP180;4154;48.810;9.012;2023-11-19T07:24:42;96887.00;;;10.80
8227;BMP180;4154;48.810;9.012;2023-11-19T07:27:08;96875.00;;;10.90
8227;BMP180;4154;48.810;9.012;2023-11-19T07:29:37;96877.00;;;10.90
8227;BMP180;4154;48.810;9.012;2023-11-19T07:32:03;96889.00;;;10.90
8227;BMP180;4154;48.810;9.012;2023-11-19T07:34:30;96887.00;;;10.90
8227;BMP180;4154;48.810;9.012;2023-11-19T07:36:56;96885.00;;;10.90
8227;BMP180;4154;48.810;9.012;2023-11-19T07:39:28;96894.00;;;10.90
8227;BMP180;4154;48.810;9.012;2023-11-19T07:41:54;96900.00;;;10.90
8227;BMP180;4154;48.810;9.012;2023-11-19T07:44:20;96902.00;;;10.90
8227;BMP180;4154;48.810;9.012;2023-11-19T07:46:47;96900.00;;;10.90
8227;BMP180;4154;48.810;9.012;2023-11-19T07:49:13;96907.00;;;10.90
8227;BMP180;4154;48.810;9.012;2023-11-19T07:51:39;96898.00;;;10.90
8227;BMP180;4154;48.810;9.012;2023-11-19T07:54:06;96915.00;;;10.90
8227;BMP180;4154;48.810;9.012;2023-11-19T07:56:34;96911.00;;;11.00
8227;BMP180;4154;48.810;9.012;2023-11-19T07:59:02;96912.00;;;10.90
8227;BMP180;4154;48.810;9.012;2023-11-19T08:01:27;96919.00;;;10.90
8227;BMP180;4154;48.810;9.012;2023-11-19T08:03:53;96917.00;;;11.00
8227;BMP180;4154;48.810;9.012;2023-11-19T08:06:19;96907.00;;;11.00
8227;BMP180;4154;48.810;9.012;2023-11-19T08:08:45;96908.00;;;11.00
8227;BMP180;4154;48.810;9.012;2023-11-19T08:11:10;96919.00;;;11.10
8227;BMP180;4154;48.810;9.012;2023-11-19T08:13:36;96907.00;;;11.00
8227;BMP180;4154;48.810;9.012;2023-11-19T08:16:02;96894.00;;;11.00
8227;BMP180;4154;48.810;9.012;2023-11-19T08:18:27;96910.00;;;11.10
8227;BMP180;4154;48.810;9.012;2023-11-19T08:20:53;96931.00;;;11.00
8227;BMP180;4154;48.810;9.012;2023-11-19T08:23:20;96908.00;;;11.10
8227;BMP180;4154;48.810;9.012;2023-11-19T08:25:46;96923.00;;;11.10
8227;BMP180;4154;48.810;9.012;2023-11-19T08:28:11;96926.00;;;11.20
8227;BMP180;4154;48.810;9.012;2023-11-19T08:30:38;96914.00;;;11.20
8227;BMP180;4154;48.810;9.012;2023-11-19T08:33:05;96914.00;;;11.30
8227;BMP180;4154;48.810;9.012;2023-11-19T08:35:32;96919.00;;;11.30
8227;BMP180;4154;48.810;9.012;2023-11-19T08:37:58;96916.00;;;11.30
8227;BMP180;4154;48.810;9.012;2023-11-19T08:40:25;96919.00;;;11.30
8227;BMP180;4154;48.810;9.012;2023-11-19T08:42:51;96929.00;;;11.40
8227;BMP180;4154;48.810;9.012;2023-11-19T08:45:17;96934.00;;;11.40
8227;BMP180;4154;48.810;9.012;2023-11-19T08:47:43;96938.00;;;11.40
8227;BMP180;4154;48.810;9.012;2023-11-19T08:50:11;96929.00;;;11.40
8227;BMP180;4154;48.810;9.012;2023-11-19T08:52:38;96933.00;;;11.40
8227;BMP180;4154;48.810;9.012;2023-11-19T08:55:04;96933.00;;;11.40
8227;BMP180;4154;48.810;9.012;2023-11-19T08:57:31;96924.00;;;11.50
8227;BMP180;4154;48.810;9.012;2023-11-19T08:59:58;96930.00;;;11.50
8227;BMP180;4154;48.810;9.012;2023-11-19T09:02:25;96931.00;;;11.50
8227;BMP180;4154;48.810;9.012;2023-11-19T09:04:50;96933.00;;;11.60
8227;BMP180;4154;48.810;9.012;2023-11-19T09:07:17;96939.00;;;11.60
8227;BMP180;4154;48.810;9.012;2023-11-19T09:09:43;96940.00;;;11.70
8227;BMP180;4154;48.810;9.012;2023-11-19T09:12:08;96928.00;;;11.70
8227;BMP180;4154;48.810;9.012;2023-11-19T09:14:34;96925.00;;;11.70
8227;BMP180;4154;48.810;9.012;2023-11-19T09:17:00;96924.00;;;11.80
8227;BMP180;4154;48.810;9.012;2023-11-19T09:19:26;96924.00;;;11.80
8227;BMP180;4154;48.810;9.012;2023-11-19T09:21:53;96931.00;;;11.90
8227;BMP180;4154;48.810;9.012;2023-11-19T09:24:19;96920.00;;;11.80
8227;BMP180;4154;48.810;9.012;2023-11-19T09:26:45;96932.00;;;11.90
8227;BMP180;4154;48.810;9.012;2023-11-19T09:29:11;96934.00;;;11.90
8227;BMP180;4154;48.810;9.012;2023-11-19T09:31:40;96940.00;;;12.00
8227;BMP180;4154;48.810;9.012;2023-11-19T09:34:06;96936.00;;;12.00
8227;BMP180;4154;48.810;9.012;2023-11-19T09:36:32;96954.00;;;12.10
8227;BMP180;4154;48.810;9.012;2023-11-19T09:38:57;96930.00;;;12.10
8227;BMP180;4154;48.810;9.012;2023-11-19T09:41:25;96927.00;;;12.20
8227;BMP180;4154;48.810;9.012;2023-11-19T09:43:53;96940.00;;;12.20
8227;BMP180;4154;48.810;9.012;2023-11-19T09:46:22;96930.00;;;12.20
8227;BMP180;4154;48.810;9.012;2023-11-19T09:48:53;96928.00;;;12.20
8227;BMP180;4154;48.810;9.012;2023-11-19T09:51:21;96923.00;;;12.30
8227;BMP180;4154;48.810;9.012;2023-11-19T09:53:48;96919.00;;;12.30
8227;BMP180;4154;48.810;9.012;2023-11-19T09:56:14;96932.00;;;12.40
8227;BMP180;4154;48.810;9.012;2023-11-19T09:58:42;96922.00;;;12.50
8227;BMP180;4154;48.810;9.012;2023-11-19T10:01:08;96921.00;;;12.60
8227;BMP180;4154;48.810;9.012;2023-11-19T10:03:39;96914.00;;;12.70
8227;BMP180;4154;48.810;9.012;2023-11-19T10:06:09;96911.00;;;12.70
8227;BMP180;4154;48.810;9.012;2023-11-19T10:08:38;96913.00;;;12.80
8227;BMP180;4154;48.810;9.012;2023-11-19T10:11:07;96896.00;;;12.80
8227;BMP180;4154;48.810;9.012;2023-11-19T10:13:35;96906.00;;;12.90
8227;BMP180;4154;48.810;9.012;2023-11-19T10:16:09;96922.00;;;12.90
8227;BMP180;4154;48.810;9.012;2023-11-19T10:18:37;96913.00;;;13.00
8227;BMP180;4154;48.810;9.012;2023-11-19T10:21:05;96908.00;;;13.00
8227;BMP180;4154;48.810;9.012;2023-11-19T10:23:31;96899.00;;;13.00
8227;BMP180;4154;48.810;9.012;2023-11-19T10:26:12;96901.00;;;13.10
8227;BMP180;4154;48.810;9.012;2023-11-19T10:28:41;96898.00;;;13.00
8227;BMP180;4154;48.810;9.012;2023-11-19T10:31:09;96897.00;;;13.00
8227;BMP180;4154;48.810;9.012;2023-11-19T10:33:35;96910.00;;;13.00
8227;BMP180;4154;48.810;9.012;2023-11-19T10:36:01;96895.00;;;13.10
8227;BMP180;4154;48.810;9.012;2023-11-19T10:38:27;96898.00;;;13.10
8227;BMP180;4154;48.810;9.012;2023-11-19T10:40:54;96904.00;;;13.10
8227;BMP180;4154;48.810;9.012;2023-11-19T10:43:21;96900.00;;;13.10
8227;BMP180;4154;48.810;9.012;2023-11-19T10:45:51;96913.00;;;13.10
8227;BMP180;4154;48.810;9.012;2023-11-19T10:48:18;96916.00;;;13.10
8227;BMP180;4154;48.810;9.012;2023-11-19T10:50:46;96897.00;;;13.20
8227;BMP180;4154;48.810;9.012;2023-11-19T10:53:12;96901.00;;;13.20
8227;BMP180;4154;48.810;9.012;2023-11-19T10:55:46;96907.00;;;13.20
8227;BMP180;4154;48.810;9.012;2023-11-19T10:58:16;96898.00;;;13.30
8227;BMP180;4154;48.810;9.012;2023-11-19T11:00:47;96902.00;;;13.30
8227;BMP180;4154;48.810;9.012;2023-11-19T11:03:22;96898.00;;;13.30
8227;BMP180;4154;48.810;9.012;2023-11-19T11:05:51;96913.00;;;13.40
8227;BMP180;4154;48.810;9.012;2023-11-19T11:08:19;96902.00;;;13.40
8227;BMP180;4154;48.810;9.012;2023-11-19T11:10:53;96909.00;;;13.50
8227;BMP180;4154;48.810;9.012;2023-11-19T11:13:23;96901.00;;;13.50
8227;BMP180;4154;48.810;9.012;2023-11-19T11:15:51;96914.00;;;13.50
8227;BMP180;4154;48.810;9.012;2023-11-19T11:18:17;96914.00;;;13.50
8227;BMP180;4154;48.810;9.012;2023-11-19T11:20:47;96907.00;;;13.50
8227;BMP180;4154;48.810;9.012;2023-11-19T11:28:51;96894.00;;;13.60
8227;BMP180;4154;48.810;9.012;2023-11-19T11:32:06;96899.00;;;13.60
8227;BMP180;4154;48.810;9.012;2023-11-19T11:37:47;96892.00;;;13.60
8227;BMP180;4154;48.810;9.012;2023-11-19T11:40:16;96880.00;;;13.60
8227;BMP180;4154;48.810;9.012;2023-11-19T11:42:44;96888.00;;;13.50
8227;BMP180;4154;48.810;9.012;2023-11-19T11:45:14;96876.00;;;13.50
8227;BMP180;4154;48.810;9.012;2023-11-19T11:50:16;96874.00;;;13.50
8227;BMP180;4154;48.810;9.012;2023-11-19T11:55:51;96876.00;;;13.60
8227;BMP180;4154;48.810;9.012;2023-11-19T11:58:23;96876.00;;;13.50
8227;BMP180;4154;48.810;9.012;2023-11-19T12:00:52;96876.00;;;13.50
8227;BMP180;4154;48.810;9.012;2023-11-19T12:03:21;96876.00;;;13.50
8227;BMP180;4154;48.810;9.012;2023-11-19T12:05:48;96871.00;;;13.60
8227;BMP180;4154;48.810;9.012;2023-11-19T12:08:18;96876.00;;;13.70
8227;BMP180;4154;48.810;9.012;2023-11-19T12:10:49;96887.00;;;13.80
8227;BMP180;4154;48.810;9.012;2023-11-19T12:13:16;96883.00;;;13.80
8227;BMP180;4154;48.810;9.012;2023-11-19T12:18:28;96881.00;;;13.90
8227;BMP180;4154;48.810;9.012;2023-11-19T12:20:55;96879.00;;;13.90
8227;BMP180;4154;48.810;9.012;2023-11-19T12:23:25;96876.00;;;13.90
8227;BMP180;4154;48.810;9.012;2023-11-19T12:25:51;96875.00;;;13.90
8227;BMP180;4154;48.810;9.012;2023-11-19T12:28:17;96858.00;;;14.00
8227;BMP180;4154;48.810;9.012;2023-11-19T12:30:43;96855.00;;;14.10
8227;BMP180;4154;48.810;9.012;2023-11-19T12:33:13;96843.00;;;14.10
8227;BMP180;4154;48.810;9.012;2023-11-19T12:35:43;96836.00;;;14.10
8227;BMP180;4154;48.810;9.012;2023-11-19T12:38:26;96841.00;;;14.00
8227;BMP180;4154;48.810;9.012;2023-11-19T12:41:09;96841.00;;;14.00
8227;BMP180;4154;48.810;9.012;2023-11-19T12:43:39;96837.00;;;13.90
8227;BMP180;4154;48.810;9.012;2023-11-19T12:46:22;96846.00;;;13.90
8227;BMP180;4154;48.810;9.012;2023-11-19T12:48:48;96841.00;;;13.90
8227;BMP180;4154;48.810;9.012;2023-11-19T12:51:14;96834.00;;;14.00
8227;BMP180;4154;48.810;9.012;2023-11-19T12:53:52;96838.00;;;13.90
8227;BMP180;4154;48.810;9.012;2023-11-19T12:56:21;96825.00;;;14.00
8227;BMP180;4154;48.810;9.012;2023-11-19T12:58:47;96836.00;;;14.00
8227;BMP180;4154;48.810;9.012;2023-11-19T13:01:21;96843.00;;;14.00
8227;BMP180;4154;48.810;9.012;2023-11-19T13:03:47;96837.00;;;14.00
8227;BMP180;4154;48.810;9.012;2023-11-19T13:06:14;96845.00;;;14.00
8227;BMP180;4154;48.810;9.012;2023-11-19T13:08:48;96857.00;;;14.00
8227;BMP180;4154;48.810;9.012;2023-11-19T13:11:33;96846.00;;;14.00
8227;BMP180;4154;48.810;9.012;2023-11-19T13:14:04;96843.00;;;13.90
8227;BMP180;4154;48.810;9.012;2023-11-19T13:16:31;96829.00;;;13.90
8227;BMP180;4154;48.810;9.012;2023-11-19T13:18:57;96836.00;;;13.90
8227;BMP180;4154;48.810;9.012;2023-11-19T13:21:24;96841.00;;;13.90
8227;BMP180;4154;48.810;9.012;2023-11-19T13:23:50;96846.00;;;13.80
8227;BMP180;4154;48.810;9.012;2023-11-19T13:26:16;96841.00;;;13.80
8227;BMP180;4154;48.810;9.012;2023-11-19T13:28:42;96842.00;;;13.90
8227;BMP180;4154;48.810;9.012;2023-11-19T13:31:08;96834.00;;;13.90
8227;BMP180;4154;48.810;9.012;2023-11-19T13:33:33;96828.00;;;13.90
8227;BMP180;4154;48.810;9.012;2023-11-19T13:35:59;96819.00;;;13.90
8227;BMP180;4154;48.810;9.012;2023-11-19T13:38:34;96824.00;;;14.00
8227;BMP180;4154;48.810;9.012;2023-11-19T13:41:05;96815.00;;;14.00
8227;BMP180;4154;48.810;9.012;2023-11-19T13:43:32;96803.00;;;13.90
8227;BMP180;4154;48.810;9.012;2023-11-19T13:45:58;96808.00;;;13.90
8227;BMP180;4154;48.810;9.012;2023-11-19T13:48:24;96803.00;;;13.90
8227;BMP180;4154;48.810;9.012;2023-11-19T13:50:50;96810.00;;;13.80
8227;BMP180;4154;48.810;9.012;2023-11-19T13:53:16;96810.00;;;13.80
8227;BMP180;4154;48.810;9.012;2023-11-19T13:55:42;96809.00;;;13.80
8227;BMP180;4154;48.810;9.012;2023-11-19T13:58:09;96816.00;;;13.70
8227;BMP180;4154;48.810;9.012;2023-11-19T14:00:35;96812.00;;;13.70
8227;BMP180;4154;48.810;9.012;2023-11-19T14:03:01;96813.00;;;13.70
8227;BMP180;4154;48.810;9.012;2023-11-19T14:05:26;96809.00;;;13.60
8227;BMP180;4154;48.810;9.012;2023-11-19T14:07:52;96810.00;;;13.60
8227;BMP180;4154;48.810;9.012;2023-11-19T14:10:19;96809.00;;;13.60
8227;BMP180;4154;48.810;9.012;2023-11-19T14:12:44;96797.00;;;13.60
8227;BMP180;4154;48.810;9.012;2023-11-19T14:15:11;96811.00;;;13.50
8227;BMP180;4154;48.810;9.012;2023-11-19T14:17:40;96805.00;;;13.50
8227;BMP180;4154;48.810;9.012;2023-11-19T14:20:06;96813.00;;;13.50
8227;BMP180;4154;48.810;9.012;2023-11-19T14:22:45;96794.00;;;13.50
8227;BMP180;4154;48.810;9.012;2023-11-19T14:25:15;96802.00;;;13.40
8227;BMP180;4154;48.810;9.012;2023-11-19T14:27:42;96792.00;;;13.40
8227;BMP180;4154;48.810;9.012;2023-11-19T14:30:11;96793.00;;;13.40
8227;BMP180;4154;48.810;9.012;2023-11-19T14:32:38;96791.00;;;13.40
8227;BMP180;4154;48.810;9.012;2023-11-19T14:35:05;96795.00;;;13.40
8227;BMP180;4154;48.810;9.012;2023-11-19T14:37:31;96787.00;;;13.50
8227;BMP180;4154;48.810;9.012;2023-11-19T14:39:57;96789.00;;;13.40
8227;BMP180;4154;48.810;9.012;2023-11-19T14:42:24;96793.00;;;13.30
8227;BMP180;4154;48.810;9.012;2023-11-19T14:44:51;96785.00;;;13.30
8227;BMP180;4154;48.810;9.012;2023-11-19T14:47:21;96799.00;;;13.30
8227;BMP180;4154;48.810;9.012;2023-11-19T14:49:47;96791.00;;;13.20
8227;BMP180;4154;48.810;9.012;2023-11-19T14:52:13;96796.00;;;13.20
8227;BMP180;4154;48.810;9.012;2023-11-19T14:54:39;96797.00;;;13.20
8227;BMP180;4154;48.810;9.012;2023-11-19T14:57:06;96790.00;;;13.20